createdAt,value
2018-02-07T11:06:34.580Z,3.70
2018-02-07T11:09:02.120Z,1.90
2018-02-07T11:11:30.419Z,2.10
2018-02-07T11:13:58.769Z,2.20
2018-02-07T11:16:26.292Z,2.20
2018-02-07T11:18:54.333Z,2.30
2018-02-07T11:21:21.908Z,2.40
2018-02-07T11:23:49.421Z,2.40
2018-02-07T11:26:17.322Z,2.50
2018-02-07T11:28:45.172Z,2.60
2018-02-07T11:31:12.699Z,2.40
2018-02-07T11:33:40.224Z,2.50
2018-02-07T11:36:07.821Z,2.40
2018-02-07T11:38:35.412Z,2.30
2018-02-07T11:41:05.441Z,2.20
2018-02-07T11:43:33.002Z,2.20
2018-02-07T11:46:00.534Z,2.20
2018-02-07T11:48:28.391Z,2.20
2018-02-07T11:50:56.005Z,2.20
2018-02-07T11:53:23.894Z,2.30
2018-02-07T11:55:51.458Z,2.30
2018-02-07T11:58:19.024Z,2.40
2018-02-07T12:00:46.541Z,2.50
2018-02-07T12:03:14.070Z,2.50
2018-02-07T12:05:41.630Z,2.50
2018-02-07T12:08:09.502Z,2.50
2018-02-07T12:10:37.805Z,2.70
2018-02-07T12:13:05.352Z,2.70
2018-02-07T12:15:33.792Z,2.90
2018-02-07T12:18:02.470Z,2.90
2018-02-07T12:20:30.034Z,2.90
2018-02-07T12:22:57.636Z,2.90
2018-02-07T12:25:26.246Z,2.80
2018-02-07T12:27:53.802Z,2.80
2018-02-07T12:30:21.357Z,2.80
2018-02-07T12:32:49.912Z,2.80
2018-02-07T12:35:17.456Z,2.80
2018-02-07T12:37:45.087Z,2.90
2018-02-07T12:40:12.690Z,2.90
2018-02-07T12:42:40.238Z,2.80
2018-02-07T12:45:07.788Z,2.80
2018-02-07T12:47:35.334Z,2.70
2018-02-07T12:50:02.899Z,2.70
2018-02-07T12:52:30.438Z,2.70
2018-02-07T12:54:58.964Z,2.60
2018-02-07T12:57:26.543Z,2.60
2018-02-07T12:59:54.875Z,2.60
2018-02-07T13:02:22.464Z,2.60
2018-02-07T13:04:50.164Z,2.60
2018-02-07T13:07:17.726Z,2.60
2018-02-07T13:09:45.269Z,2.60
2018-02-07T13:12:12.827Z,2.60
2018-02-07T13:14:40.375Z,2.60
2018-02-07T13:17:07.967Z,2.60
2018-02-07T13:19:35.526Z,2.60
2018-02-07T13:22:03.830Z,2.50
2018-02-07T13:24:31.349Z,2.50
2018-02-07T13:26:58.932Z,2.50
2018-02-07T13:29:27.519Z,2.50
2018-02-07T13:31:55.048Z,2.60
2018-02-07T13:34:22.597Z,2.60
2018-02-07T13:36:50.135Z,2.60
2018-02-07T13:39:17.663Z,2.70
2018-02-07T13:41:45.216Z,2.60
2018-02-07T13:44:12.733Z,2.60
2018-02-07T13:46:40.259Z,2.60
2018-02-07T13:49:07.813Z,2.60
2018-02-07T13:51:35.328Z,2.60
2018-02-07T13:54:02.938Z,2.60
2018-02-07T13:56:30.514Z,2.60
2018-02-07T13:58:58.057Z,2.60
2018-02-07T14:01:25.583Z,2.60
2018-02-07T14:03:53.904Z,2.60
2018-02-07T14:06:21.418Z,2.60
2018-02-07T14:08:49.695Z,2.70
2018-02-07T14:11:18.011Z,2.70
2018-02-07T14:13:45.539Z,2.70
2018-02-07T14:16:13.838Z,2.80
2018-02-07T14:18:41.678Z,2.80
2018-02-07T14:21:10.070Z,2.90
2018-02-07T14:23:37.622Z,2.90
2018-02-07T14:26:05.953Z,2.90
2018-02-07T14:28:33.490Z,2.80
2018-02-07T14:31:01.784Z,2.80
2018-02-07T14:33:29.434Z,2.80
2018-02-07T14:35:56.956Z,2.80
2018-02-07T14:38:25.242Z,2.70
2018-02-07T14:40:53.563Z,2.60
2018-02-07T14:43:22.510Z,2.60
2018-02-07T14:45:50.029Z,2.60
2018-02-07T14:48:17.573Z,2.50
2018-02-07T14:50:45.872Z,2.40
2018-02-07T14:53:13.388Z,2.40
2018-02-07T14:55:40.941Z,2.40
2018-02-07T14:58:08.686Z,2.40
2018-02-07T15:00:36.982Z,2.30
2018-02-07T15:03:04.570Z,2.30
2018-02-07T15:05:32.099Z,2.30
2018-02-07T15:07:59.851Z,2.30
2018-02-07T15:10:28.452Z,2.30
2018-02-07T15:12:56.023Z,2.30
2018-02-07T15:15:24.287Z,2.10
2018-02-07T15:17:51.839Z,2.20
2018-02-07T15:20:19.363Z,2.20
2018-02-07T15:22:46.962Z,2.20
2018-02-07T15:25:14.584Z,2.10
2018-02-07T15:27:42.101Z,2.10
2018-02-07T15:30:09.616Z,2.00
2018-02-07T15:32:37.448Z,2.00
2018-02-07T15:35:04.975Z,2.10
2018-02-07T15:37:33.375Z,2.00
2018-02-07T15:40:00.925Z,2.00
2018-02-07T15:42:28.443Z,2.00
2018-02-07T15:44:55.979Z,2.00
2018-02-07T15:47:24.105Z,1.90
2018-02-07T15:49:51.761Z,1.90
2018-02-07T15:52:20.443Z,1.90
2018-02-07T15:54:47.993Z,1.90
2018-02-07T15:57:16.273Z,1.90
2018-02-07T15:59:43.958Z,1.80
2018-02-07T16:02:12.565Z,1.80
2018-02-07T16:04:40.097Z,1.80
2018-02-07T16:07:07.624Z,1.80
2018-02-07T16:09:35.191Z,1.80
2018-02-07T16:12:03.347Z,1.80
2018-02-07T16:14:30.883Z,1.80
2018-02-07T16:16:58.436Z,1.80
2018-02-07T16:19:25.953Z,1.80
2018-02-07T16:21:54.267Z,1.80
2018-02-07T16:24:21.940Z,1.80
2018-02-07T16:26:49.459Z,1.80
2018-02-07T16:29:17.755Z,1.70
2018-02-07T16:31:46.206Z,1.70
2018-02-07T16:34:13.774Z,1.80
2018-02-07T16:36:42.953Z,1.70
2018-02-07T16:39:10.506Z,1.70
2018-02-07T16:41:38.036Z,1.60
2018-02-07T16:44:05.583Z,1.60
2018-02-07T16:46:33.337Z,1.60
2018-02-07T16:49:00.874Z,1.60
2018-02-07T16:51:29.162Z,1.50
2018-02-07T16:53:57.474Z,1.50
2018-02-07T16:56:25.006Z,1.50
2018-02-07T16:58:52.550Z,1.50
2018-02-07T17:01:21.004Z,1.40
2018-02-07T17:03:48.525Z,1.40
2018-02-07T17:06:16.052Z,1.40
2018-02-07T17:08:44.404Z,1.30
2018-02-07T17:11:11.941Z,1.30
2018-02-07T17:13:39.458Z,1.40
2018-02-07T17:16:07.771Z,1.40
2018-02-07T17:18:35.299Z,1.40
2018-02-07T17:21:02.831Z,1.40
2018-02-07T17:23:30.389Z,1.40
2018-02-07T17:25:57.905Z,1.30
2018-02-07T17:28:25.427Z,1.20
2018-02-07T17:30:53.762Z,1.20
2018-02-07T17:33:21.285Z,1.20
2018-02-07T17:35:48.817Z,1.30
2018-02-07T17:38:17.150Z,1.20
2018-02-07T17:40:44.690Z,1.20
2018-02-07T17:43:12.256Z,1.20
2018-02-07T17:45:39.802Z,1.20
2018-02-07T17:48:07.342Z,1.20
2018-02-07T17:50:34.897Z,1.20
2018-02-07T17:53:02.468Z,1.10
2018-02-07T17:55:29.997Z,1.20
2018-02-07T17:57:57.527Z,1.10
2018-02-07T18:00:26.261Z,1.20
2018-02-07T18:02:53.806Z,1.20
2018-02-07T18:05:21.352Z,1.10
2018-02-07T18:07:48.934Z,1.10
2018-02-07T18:10:16.556Z,1.20
2018-02-07T18:12:44.093Z,1.20
2018-02-07T18:15:12.411Z,1.20
2018-02-07T18:17:39.974Z,1.20
2018-02-07T18:20:07.520Z,1.10
2018-02-07T18:22:35.102Z,1.20
2018-02-07T18:25:02.925Z,1.10
2018-02-07T18:27:30.458Z,1.10
2018-02-07T18:29:59.236Z,1.10
2018-02-07T18:32:26.778Z,1.10
2018-02-07T18:34:54.306Z,1.10
2018-02-07T18:37:21.885Z,1.20
2018-02-07T18:39:49.406Z,1.20
2018-02-07T18:42:16.938Z,1.20
2018-02-07T18:44:44.589Z,1.20
2018-02-07T18:47:12.945Z,1.20
2018-02-07T18:49:41.735Z,1.20
2018-02-07T18:52:09.314Z,1.20
2018-02-07T18:54:36.940Z,1.20
2018-02-07T18:57:05.453Z,1.20
2018-02-07T18:59:33.790Z,1.20
2018-02-07T19:02:01.347Z,1.10
2018-02-07T19:04:29.006Z,1.20
2018-02-07T19:06:56.729Z,1.20
2018-02-07T19:09:24.256Z,1.20
2018-02-07T19:11:51.813Z,1.10
2018-02-07T19:14:20.163Z,1.20
2018-02-07T19:16:48.510Z,1.20
2018-02-07T19:19:16.040Z,1.10
2018-02-07T19:21:43.607Z,1.10
2018-02-07T19:24:11.151Z,1.10
2018-02-07T19:26:40.382Z,1.10
2018-02-07T19:29:07.978Z,1.10
2018-02-07T19:31:36.266Z,1.10
2018-02-07T19:34:03.795Z,1.00
2018-02-07T19:36:31.345Z,1.10
2018-02-07T19:38:58.913Z,1.00
2018-02-07T19:41:26.507Z,1.00
2018-02-07T19:43:54.633Z,1.00
2018-02-07T19:46:22.179Z,1.00
2018-02-07T19:48:49.709Z,1.00
2018-02-07T19:51:17.289Z,1.00
2018-02-07T19:53:44.831Z,1.10
2018-02-07T19:56:12.380Z,1.00
2018-02-07T19:58:39.932Z,1.00
2018-02-07T20:01:08.234Z,1.00
2018-02-07T20:03:36.038Z,0.90
2018-02-07T20:06:03.761Z,1.00
2018-02-07T20:08:31.342Z,1.00
2018-02-07T20:10:59.640Z,1.00
2018-02-07T20:13:27.221Z,1.00
2018-02-07T20:15:54.761Z,1.00
2018-02-07T20:18:22.309Z,1.00
2018-02-07T20:20:50.722Z,0.90
2018-02-07T20:23:18.380Z,1.00
2018-02-07T20:25:46.072Z,1.00
2018-02-07T20:28:13.862Z,1.00
2018-02-07T20:30:41.886Z,1.00
2018-02-07T20:33:09.811Z,1.00
2018-02-07T20:35:50.371Z,1.00
2018-02-07T20:38:18.467Z,1.00
2018-02-07T20:40:48.521Z,1.00
2018-02-07T20:43:16.344Z,1.00
2018-02-07T20:48:43.385Z,1.00
2018-02-07T20:51:12.055Z,1.00
2018-02-07T20:53:40.467Z,1.00
2018-02-07T20:56:10.108Z,1.00
2018-02-07T20:58:39.295Z,1.00
2018-02-07T21:01:08.672Z,1.00
2018-02-07T21:03:36.263Z,1.00
2018-02-07T21:06:04.109Z,1.00
2018-02-07T21:08:32.433Z,1.00
2018-02-07T21:10:59.977Z,1.00
2018-02-07T21:13:27.519Z,1.10
2018-02-07T21:15:55.060Z,1.00
2018-02-07T21:18:22.596Z,1.10
2018-02-07T21:20:50.156Z,1.00
2018-02-07T21:23:17.873Z,1.10
2018-02-07T21:25:46.666Z,1.00
2018-02-07T21:28:14.198Z,1.00
2018-02-07T21:30:41.819Z,1.00
2018-02-07T21:33:10.199Z,1.00
2018-02-07T21:35:38.496Z,1.00
2018-02-07T21:38:06.153Z,1.00
2018-02-07T21:40:33.718Z,1.00
2018-02-07T21:43:01.240Z,1.00
2018-02-07T21:45:28.898Z,1.00
2018-02-07T21:47:56.582Z,1.00
2018-02-07T21:50:25.098Z,1.00
2018-02-07T21:52:52.714Z,1.00
2018-02-07T21:55:20.354Z,0.90
2018-02-07T21:57:48.028Z,0.90
2018-02-07T22:00:15.627Z,0.90
2018-02-07T22:02:43.260Z,0.90
2018-02-07T22:05:10.869Z,0.90
2018-02-07T22:07:38.768Z,0.90
2018-02-07T22:10:06.448Z,0.90
2018-02-07T22:12:34.055Z,0.90
2018-02-07T22:15:01.770Z,0.90
2018-02-07T22:17:29.711Z,0.80
2018-02-07T22:19:57.233Z,0.80
2018-02-07T22:22:24.854Z,0.80
2018-02-07T22:24:52.472Z,0.80
2018-02-07T22:27:20.237Z,0.80
2018-02-07T22:29:47.823Z,0.80
2018-02-07T22:32:16.146Z,0.80
2018-02-07T22:34:44.528Z,0.70
2018-02-07T22:37:12.302Z,0.70
2018-02-07T22:39:40.273Z,0.80
2018-02-07T22:42:08.920Z,0.70
2018-02-07T22:44:36.500Z,0.80
2018-02-07T22:47:04.977Z,0.70
2018-02-07T22:49:32.498Z,0.70
2018-02-07T22:52:00.303Z,0.70
2018-02-07T22:54:28.388Z,0.70
2018-02-07T22:56:55.954Z,0.80
2018-02-07T22:59:24.497Z,0.70
2018-02-07T23:01:52.086Z,0.70
2018-02-07T23:04:19.609Z,0.70
2018-02-07T23:06:47.649Z,0.70
2018-02-07T23:09:15.461Z,0.60
2018-02-07T23:11:42.986Z,0.60
2018-02-07T23:14:10.582Z,0.60
2018-02-07T23:16:38.209Z,0.70
2018-02-07T23:19:05.789Z,0.60
2018-02-07T23:21:33.697Z,0.60
2018-02-07T23:24:01.354Z,0.60
2018-02-07T23:26:28.892Z,0.60
2018-02-07T23:28:56.484Z,0.60
2018-02-07T23:31:24.101Z,0.50
2018-02-07T23:33:51.635Z,0.50
2018-02-07T23:36:19.219Z,0.50
2018-02-07T23:38:46.778Z,0.50
2018-02-07T23:41:14.389Z,0.50
2018-02-07T23:43:41.913Z,0.50
2018-02-07T23:46:09.470Z,0.50
2018-02-07T23:48:37.012Z,0.50
2018-02-07T23:51:04.542Z,0.50
2018-02-07T23:53:32.970Z,0.50
2018-02-07T23:56:00.749Z,0.50
2018-02-07T23:58:28.292Z,0.50
